sensor_id;sensor_type;location;lat;lon;timestamp;P1;durP1;ratioP1;P2;durP2;ratioP2
53925;SDS011;39836;52.754;6.866;2023-04-03T00:02:17;6.78;;;3.00;;
53925;SDS011;39836;52.754;6.866;2023-04-03T00:04:42;4.57;;;2.92;;
53925;SDS011;39836;52.754;6.866;2023-04-03T00:07:08;5.20;;;3.30;;
53925;SDS011;39836;52.754;6.866;2023-04-03T00:09:34;4.35;;;2.85;;
53925;SDS011;39836;52.754;6.866;2023-04-03T00:11:59;5.53;;;3.33;;
53925;SDS011;39836;52.754;6.866;2023-04-03T00:14:25;5.25;;;2.90;;
53925;SDS011;39836;52.754;6.866;2023-04-03T00:16:52;5.53;;;2.80;;
53925;SDS011;39836;52.754;6.866;2023-04-03T00:19:18;5.72;;;2.90;;
53925;SDS011;39836;52.754;6.866;2023-04-03T00:21:44;6.13;;;3.03;;
53925;SDS011;39836;52.754;6.866;2023-04-03T00:24:10;4.05;;;2.50;;
53925;SDS011;39836;52.754;6.866;2023-04-03T00:26:35;7.53;;;3.35;;
53925;SDS011;39836;52.754;6.866;2023-04-03T00:29:01;5.10;;;2.95;;
53925;SDS011;39836;52.754;6.866;2023-04-03T00:31:27;11.25;;;3.22;;
53925;SDS011;39836;52.754;6.866;2023-04-03T00:33:52;5.63;;;2.83;;
53925;SDS011;39836;52.754;6.866;2023-04-03T00:36:18;3.88;;;2.80;;
53925;SDS011;39836;52.754;6.866;2023-04-03T00:38:44;4.85;;;3.10;;
53925;SDS011;39836;52.754;6.866;2023-04-03T00:41:10;6.63;;;2.97;;
53925;SDS011;39836;52.754;6.866;2023-04-03T00:43:35;4.18;;;3.00;;
53925;SDS011;39836;52.754;6.866;2023-04-03T00:46:02;4.88;;;2.90;;
53925;SDS011;39836;52.754;6.866;2023-04-03T00:48:31;8.52;;;2.70;;
53925;SDS011;39836;52.754;6.866;2023-04-03T00:50:59;5.35;;;2.85;;
53925;SDS011;39836;52.754;6.866;2023-04-03T00:53:31;5.20;;;2.97;;
53925;SDS011;39836;52.754;6.866;2023-04-03T00:56:00;7.68;;;3.33;;
53925;SDS011;39836;52.754;6.866;2023-04-03T00:58:28;7.53;;;3.70;;
53925;SDS011;39836;52.754;6.866;2023-04-03T01:01:00;4.82;;;3.13;;
53925;SDS011;39836;52.754;6.866;2023-04-03T01:03:31;5.80;;;3.03;;
53925;SDS011;39836;52.754;6.866;2023-04-03T01:05:57;5.15;;;3.22;;
53925;SDS011;39836;52.754;6.866;2023-04-03T01:08:23;6.53;;;3.35;;
53925;SDS011;39836;52.754;6.866;2023-04-03T01:10:49;5.03;;;3.00;;
53925;SDS011;39836;52.754;6.866;2023-04-03T01:13:23;5.18;;;3.08;;
53925;SDS011;39836;52.754;6.866;2023-04-03T01:15:51;7.00;;;3.67;;
53925;SDS011;39836;52.754;6.866;2023-04-03T01:18:16;6.20;;;3.40;;
53925;SDS011;39836;52.754;6.866;2023-04-03T01:25:57;6.05;;;3.50;;
53925;SDS011;39836;52.754;6.866;2023-04-03T01:28:24;6.13;;;3.42;;
53925;SDS011;39836;52.754;6.866;2023-04-03T01:33:23;10.05;;;4.18;;
53925;SDS011;39836;52.754;6.866;2023-04-03T01:35:49;8.00;;;3.80;;
53925;SDS011;39836;52.754;6.866;2023-04-03T01:38:15;7.57;;;4.28;;
53925;SDS011;39836;52.754;6.866;2023-04-03T01:40:41;8.25;;;3.40;;
53925;SDS011;39836;52.754;6.866;2023-04-03T01:43:06;8.23;;;3.30;;
53925;SDS011;39836;52.754;6.866;2023-04-03T01:45:32;5.90;;;3.50;;
53925;SDS011;39836;52.754;6.866;2023-04-03T01:47:58;7.60;;;3.38;;
53925;SDS011;39836;52.754;6.866;2023-04-03T01:50:24;7.57;;;3.50;;
53925;SDS011;39836;52.754;6.866;2023-04-03T01:52:49;6.13;;;3.40;;
53925;SDS011;39836;52.754;6.866;2023-04-03T01:55:15;12.13;;;4.13;;
53925;SDS011;39836;52.754;6.866;2023-04-03T01:57:41;4.95;;;3.53;;
53925;SDS011;39836;52.754;6.866;2023-04-03T02:00:07;6.35;;;3.78;;
53925;SDS011;39836;52.754;6.866;2023-04-03T02:02:33;7.03;;;3.30;;
53925;SDS011;39836;52.754;6.866;2023-04-03T02:04:58;10.50;;;3.75;;
53925;SDS011;39836;52.754;6.866;2023-04-03T02:07:24;8.60;;;3.70;;
53925;SDS011;39836;52.754;6.866;2023-04-03T02:09:50;13.13;;;4.15;;
53925;SDS011;39836;52.754;6.866;2023-04-03T02:12:16;5.05;;;3.47;;
53925;SDS011;39836;52.754;6.866;2023-04-03T02:14:42;8.43;;;3.90;;
53925;SDS011;39836;52.754;6.866;2023-04-03T02:17:07;8.15;;;4.25;;
53925;SDS011;39836;52.754;6.866;2023-04-03T02:19:36;7.18;;;3.80;;
53925;SDS011;39836;52.754;6.866;2023-04-03T02:22:03;8.02;;;3.85;;
53925;SDS011;39836;52.754;6.866;2023-04-03T02:24:29;9.88;;;3.60;;
53925;SDS011;39836;52.754;6.866;2023-04-03T02:26:55;10.35;;;3.88;;
53925;SDS011;39836;52.754;6.866;2023-04-03T02:29:20;8.52;;;4.07;;
53925;SDS011;39836;52.754;6.866;2023-04-03T02:31:46;9.32;;;3.67;;
53925;SDS011;39836;52.754;6.866;2023-04-03T02:34:12;6.70;;;3.53;;
53925;SDS011;39836;52.754;6.866;2023-04-03T02:36:38;6.20;;;3.70;;
53925;SDS011;39836;52.754;6.866;2023-04-03T02:39:03;6.88;;;3.60;;
53925;SDS011;39836;52.754;6.866;2023-04-03T02:41:29;7.45;;;3.75;;
53925;SDS011;39836;52.754;6.866;2023-04-03T02:44:00;8.18;;;3.85;;
53925;SDS011;39836;52.754;6.866;2023-04-03T02:46:26;7.93;;;3.88;;
53925;SDS011;39836;52.754;6.866;2023-04-03T02:48:52;10.35;;;3.80;;
53925;SDS011;39836;52.754;6.866;2023-04-03T02:51:18;8.98;;;4.35;;
53925;SDS011;39836;52.754;6.866;2023-04-03T02:53:43;7.40;;;3.90;;
53925;SDS011;39836;52.754;6.866;2023-04-03T02:56:09;10.45;;;4.40;;
53925;SDS011;39836;52.754;6.866;2023-04-03T02:58:35;12.15;;;4.63;;
53925;SDS011;39836;52.754;6.866;2023-04-03T03:01:01;10.75;;;4.60;;
53925;SDS011;39836;52.754;6.866;2023-04-03T03:03:27;9.02;;;4.10;;
53925;SDS011;39836;52.754;6.866;2023-04-03T03:06:06;7.70;;;3.90;;
53925;SDS011;39836;52.754;6.866;2023-04-03T03:08:36;4.88;;;3.70;;
53925;SDS011;39836;52.754;6.866;2023-04-03T03:11:02;7.75;;;4.20;;
53925;SDS011;39836;52.754;6.866;2023-04-03T03:13:28;6.95;;;4.10;;
53925;SDS011;39836;52.754;6.866;2023-04-03T03:15:54;6.30;;;3.95;;
53925;SDS011;39836;52.754;6.866;2023-04-03T03:18:20;8.50;;;3.90;;
53925;SDS011;39836;52.754;6.866;2023-04-03T03:20:46;8.45;;;4.30;;
53925;SDS011;39836;52.754;6.866;2023-04-03T03:23:12;8.95;;;4.03;;
53925;SDS011;39836;52.754;6.866;2023-04-03T03:25:38;8.27;;;4.65;;
53925;SDS011;39836;52.754;6.866;2023-04-03T03:28:05;9.50;;;3.85;;
53925;SDS011;39836;52.754;6.866;2023-04-03T03:30:31;13.23;;;4.15;;
53925;SDS011;39836;52.754;6.866;2023-04-03T03:32:56;7.05;;;4.22;;
53925;SDS011;39836;52.754;6.866;2023-04-03T03:35:22;9.38;;;4.75;;
53925;SDS011;39836;52.754;6.866;2023-04-03T03:37:48;8.65;;;4.13;;
53925;SDS011;39836;52.754;6.866;2023-04-03T03:40:13;11.50;;;4.50;;
53925;SDS011;39836;52.754;6.866;2023-04-03T03:42:39;9.35;;;4.50;;
53925;SDS011;39836;52.754;6.866;2023-04-03T03:45:05;8.88;;;4.53;;
53925;SDS011;39836;52.754;6.866;2023-04-03T03:47:31;11.13;;;4.03;;
53925;SDS011;39836;52.754;6.866;2023-04-03T03:49:57;6.80;;;4.13;;
53925;SDS011;39836;52.754;6.866;2023-04-03T03:52:23;9.02;;;4.45;;
53925;SDS011;39836;52.754;6.866;2023-04-03T03:54:48;7.15;;;3.95;;
53925;SDS011;39836;52.754;6.866;2023-04-03T03:57:14;10.35;;;4.03;;
53925;SDS011;39836;52.754;6.866;2023-04-03T03:59:40;7.88;;;4.07;;
53925;SDS011;39836;52.754;6.866;2023-04-03T04:02:07;9.68;;;4.45;;
53925;SDS011;39836;52.754;6.866;2023-04-03T04:04:32;7.07;;;4.00;;
53925;SDS011;39836;52.754;6.866;2023-04-03T04:06:58;7.40;;;4.30;;
53925;SDS011;39836;52.754;6.866;2023-04-03T04:09:25;9.65;;;4.68;;
53925;SDS011;39836;52.754;6.866;2023-04-03T04:11:51;5.28;;;4.10;;
53925;SDS011;39836;52.754;6.866;2023-04-03T04:14:17;9.63;;;4.53;;
53925;SDS011;39836;52.754;6.866;2023-04-03T04:16:45;10.43;;;4.85;;
53925;SDS011;39836;52.754;6.866;2023-04-03T04:19:12;6.13;;;4.60;;
53925;SDS011;39836;52.754;6.866;2023-04-03T04:21:38;9.45;;;4.93;;
53925;SDS011;39836;52.754;6.866;2023-04-03T04:24:04;9.20;;;4.80;;
53925;SDS011;39836;52.754;6.866;2023-04-03T04:26:31;6.70;;;4.32;;
53925;SDS011;39836;52.754;6.866;2023-04-03T04:28:56;7.65;;;4.63;;
53925;SDS011;39836;52.754;6.866;2023-04-03T04:31:22;10.02;;;4.25;;
53925;SDS011;39836;52.754;6.866;2023-04-03T04:33:48;8.52;;;4.72;;
53925;SDS011;39836;52.754;6.866;2023-04-03T04:36:13;12.13;;;5.03;;
53925;SDS011;39836;52.754;6.866;2023-04-03T04:38:40;11.27;;;4.30;;
53925;SDS011;39836;52.754;6.866;2023-04-03T04:41:06;8.93;;;4.65;;
53925;SDS011;39836;52.754;6.866;2023-04-03T04:43:32;7.40;;;4.28;;
53925;SDS011;39836;52.754;6.866;2023-04-03T04:46:05;8.93;;;4.55;;
53925;SDS011;39836;52.754;6.866;2023-04-03T04:48:32;8.15;;;4.50;;
53925;SDS011;39836;52.754;6.866;2023-04-03T04:50:58;10.65;;;5.78;;
53925;SDS011;39836;52.754;6.866;2023-04-03T04:53:24;12.07;;;4.72;;
53925;SDS011;39836;52.754;6.866;2023-04-03T04:55:50;7.32;;;4.32;;
53925;SDS011;39836;52.754;6.866;2023-04-03T04:58:17;13.52;;;4.80;;
53925;SDS011;39836;52.754;6.866;2023-04-03T05:00:42;8.60;;;5.45;;
53925;SDS011;39836;52.754;6.866;2023-04-03T05:03:09;7.68;;;4.72;;
53925;SDS011;39836;52.754;6.866;2023-04-03T05:05:34;9.98;;;4.35;;
53925;SDS011;39836;52.754;6.866;2023-04-03T05:08:00;8.48;;;4.70;;
53925;SDS011;39836;52.754;6.866;2023-04-03T05:10:27;11.32;;;4.70;;
53925;SDS011;39836;52.754;6.866;2023-04-03T05:12:53;6.65;;;4.55;;
53925;SDS011;39836;52.754;6.866;2023-04-03T05:15:19;9.60;;;5.22;;
53925;SDS011;39836;52.754;6.866;2023-04-03T05:17:45;13.15;;;6.13;;
53925;SDS011;39836;52.754;6.866;2023-04-03T05:20:11;6.45;;;4.10;;
53925;SDS011;39836;52.754;6.866;2023-04-03T05:22:37;9.98;;;4.43;;
53925;SDS011;39836;52.754;6.866;2023-04-03T05:25:03;9.63;;;4.57;;
53925;SDS011;39836;52.754;6.866;2023-04-03T05:27:30;8.30;;;4.20;;
53925;SDS011;39836;52.754;6.866;2023-04-03T05:29:55;7.82;;;4.35;;
53925;SDS011;39836;52.754;6.866;2023-04-03T05:32:22;7.97;;;4.90;;
53925;SDS011;39836;52.754;6.866;2023-04-03T05:34:48;5.43;;;4.45;;
53925;SDS011;39836;52.754;6.866;2023-04-03T05:37:13;8.93;;;5.00;;
53925;SDS011;39836;52.754;6.866;2023-04-03T05:39:39;7.50;;;4.28;;
53925;SDS011;39836;52.754;6.866;2023-04-03T05:42:06;9.68;;;4.43;;
53925;SDS011;39836;52.754;6.866;2023-04-03T05:44:32;12.02;;;4.93;;
53925;SDS011;39836;52.754;6.866;2023-04-03T05:46:58;8.88;;;4.13;;
53925;SDS011;39836;52.754;6.866;2023-04-03T05:49:24;9.75;;;4.30;;
53925;SDS011;39836;52.754;6.866;2023-04-03T05:51:50;8.07;;;4.28;;
53925;SDS011;39836;52.754;6.866;2023-04-03T05:54:20;11.80;;;4.32;;
53925;SDS011;39836;52.754;6.866;2023-04-03T05:56:49;6.82;;;4.00;;
53925;SDS011;39836;52.754;6.866;2023-04-03T05:59:15;10.18;;;4.25;;
53925;SDS011;39836;52.754;6.866;2023-04-03T06:01:45;6.57;;;4.57;;
53925;SDS011;39836;52.754;6.866;2023-04-03T06:04:11;7.00;;;4.55;;
53925;SDS011;39836;52.754;6.866;2023-04-03T06:06:45;10.88;;;4.40;;
53925;SDS011;39836;52.754;6.866;2023-04-03T06:09:16;8.35;;;4.18;;
53925;SDS011;39836;52.754;6.866;2023-04-03T06:11:43;15.93;;;5.18;;
53925;SDS011;39836;52.754;6.866;2023-04-03T06:14:09;7.30;;;4.07;;
53925;SDS011;39836;52.754;6.866;2023-04-03T06:16:35;11.43;;;4.18;;
53925;SDS011;39836;52.754;6.866;2023-04-03T06:19:01;6.68;;;4.28;;
53925;SDS011;39836;52.754;6.866;2023-04-03T06:21:27;7.93;;;3.70;;
53925;SDS011;39836;52.754;6.866;2023-04-03T06:23:53;8.77;;;3.92;;
53925;SDS011;39836;52.754;6.866;2023-04-03T06:26:19;10.35;;;4.43;;
53925;SDS011;39836;52.754;6.866;2023-04-03T06:28:45;15.85;;;4.13;;
53925;SDS011;39836;52.754;6.866;2023-04-03T06:31:11;8.43;;;3.63;;
53925;SDS011;39836;52.754;6.866;2023-04-03T06:33:37;11.15;;;4.18;;
53925;SDS011;39836;52.754;6.866;2023-04-03T06:36:04;7.05;;;3.72;;
53925;SDS011;39836;52.754;6.866;2023-04-03T06:38:31;7.47;;;3.97;;
53925;SDS011;39836;52.754;6.866;2023-04-03T06:40:58;8.57;;;3.83;;
53925;SDS011;39836;52.754;6.866;2023-04-03T06:43:23;6.32;;;4.25;;
53925;SDS011;39836;52.754;6.866;2023-04-03T06:45:49;8.18;;;3.58;;
53925;SDS011;39836;52.754;6.866;2023-04-03T06:48:15;10.57;;;3.65;;
53925;SDS011;39836;52.754;6.866;2023-04-03T06:50:41;11.50;;;4.82;;
53925;SDS011;39836;52.754;6.866;2023-04-03T06:53:07;10.25;;;4.00;;
53925;SDS011;39836;52.754;6.866;2023-04-03T06:55:33;10.38;;;4.03;;
53925;SDS011;39836;52.754;6.866;2023-04-03T06:57:59;9.95;;;3.92;;
53925;SDS011;39836;52.754;6.866;2023-04-03T07:00:25;7.03;;;3.42;;
53925;SDS011;39836;52.754;6.866;2023-04-03T07:02:51;4.10;;;3.60;;
53925;SDS011;39836;52.754;6.866;2023-04-03T07:05:17;9.48;;;3.83;;
53925;SDS011;39836;52.754;6.866;2023-04-03T07:07:43;8.00;;;3.95;;
53925;SDS011;39836;52.754;6.866;2023-04-03T07:10:09;8.55;;;4.20;;
53925;SDS011;39836;52.754;6.866;2023-04-03T07:12:36;17.20;;;4.22;;
53925;SDS011;39836;52.754;6.866;2023-04-03T07:15:05;12.20;;;4.63;;
53925;SDS011;39836;52.754;6.866;2023-04-03T07:17:31;7.80;;;3.58;;
53925;SDS011;39836;52.754;6.866;2023-04-03T07:19:57;7.75;;;3.90;;
53925;SDS011;39836;52.754;6.866;2023-04-03T07:22:23;10.88;;;4.30;;
53925;SDS011;39836;52.754;6.866;2023-04-03T07:24:49;9.25;;;3.53;;
53925;SDS011;39836;52.754;6.866;2023-04-03T07:27:15;7.40;;;3.40;;
53925;SDS011;39836;52.754;6.866;2023-04-03T07:29:42;8.13;;;3.72;;
53925;SDS011;39836;52.754;6.866;2023-04-03T07:32:09;11.57;;;3.95;;
53925;SDS011;39836;52.754;6.866;2023-04-03T07:34:35;9.00;;;3.45;;
53925;SDS011;39836;52.754;6.866;2023-04-03T07:37:01;6.07;;;3.42;;
53925;SDS011;39836;52.754;6.866;2023-04-03T07:39:27;7.30;;;3.67;;
53925;SDS011;39836;52.754;6.866;2023-04-03T07:41:53;3.22;;;2.90;;
53925;SDS011;39836;52.754;6.866;2023-04-03T07:44:21;6.78;;;3.38;;
53925;SDS011;39836;52.754;6.866;2023-04-03T07:46:47;6.35;;;3.22;;
53925;SDS011;39836;52.754;6.866;2023-04-03T07:49:13;8.05;;;3.42;;
53925;SDS011;39836;52.754;6.866;2023-04-03T07:51:39;6.63;;;3.38;;
53925;SDS011;39836;52.754;6.866;2023-04-03T07:54:05;8.32;;;3.45;;
53925;SDS011;39836;52.754;6.866;2023-04-03T07:56:31;7.50;;;2.97;;
53925;SDS011;39836;52.754;6.866;2023-04-03T07:58:57;9.05;;;3.10;;
53925;SDS011;39836;52.754;6.866;2023-04-03T08:01:23;10.00;;;3.45;;
53925;SDS011;39836;52.754;6.866;2023-04-03T08:03:48;7.70;;;3.20;;
53925;SDS011;39836;52.754;6.866;2023-04-03T08:06:14;5.10;;;2.63;;
53925;SDS011;39836;52.754;6.866;2023-04-03T08:08:40;5.85;;;3.33;;
53925;SDS011;39836;52.754;6.866;2023-04-03T08:11:06;9.35;;;3.40;;
53925;SDS011;39836;52.754;6.866;2023-04-03T08:13:33;6.28;;;3.25;;
53925;SDS011;39836;52.754;6.866;2023-04-03T08:16:10;5.03;;;3.03;;
53925;SDS011;39836;52.754;6.866;2023-04-03T08:18:37;6.50;;;3.08;;
53925;SDS011;39836;52.754;6.866;2023-04-03T08:21:10;7.70;;;3.22;;
53925;SDS011;39836;52.754;6.866;2023-04-03T08:23:37;7.25;;;3.47;;
53925;SDS011;39836;52.754;6.866;2023-04-03T08:26:15;6.75;;;3.33;;
53925;SDS011;39836;52.754;6.866;2023-04-03T08:28:42;6.32;;;3.67;;
53925;SDS011;39836;52.754;6.866;2023-04-03T08:31:10;7.22;;;3.22;;
53925;SDS011;39836;52.754;6.866;2023-04-03T08:33:38;9.35;;;3.20;;
53925;SDS011;39836;52.754;6.866;2023-04-03T08:36:05;6.72;;;3.67;;
53925;SDS011;39836;52.754;6.866;2023-04-03T08:38:32;6.25;;;3.30;;
53925;SDS011;39836;52.754;6.866;2023-04-03T08:41:42;5.13;;;2.65;;
53925;SDS011;39836;52.754;6.866;2023-04-03T08:44:15;8.65;;;2.90;;
53925;SDS011;39836;52.754;6.866;2023-04-03T08:49:35;5.22;;;2.60;;
53925;SDS011;39836;52.754;6.866;2023-04-03T08:52:11;5.40;;;2.50;;
53925;SDS011;39836;52.754;6.866;2023-04-03T08:54:53;6.40;;;2.90;;
53925;SDS011;39836;52.754;6.866;2023-04-03T08:57:29;5.55;;;2.75;;
53925;SDS011;39836;52.754;6.866;2023-04-03T09:00:00;5.35;;;2.60;;
53925;SDS011;39836;52.754;6.866;2023-04-03T09:02:34;5.20;;;2.50;;
53925;SDS011;39836;52.754;6.866;2023-04-03T09:05:20;5.40;;;2.63;;
53925;SDS011;39836;52.754;6.866;2023-04-03T09:10:46;4.22;;;2.60;;
53925;SDS011;39836;52.754;6.866;2023-04-03T09:15:50;4.15;;;2.10;;
53925;SDS011;39836;52.754;6.866;2023-04-03T09:18:19;6.72;;;2.35;;
53925;SDS011;39836;52.754;6.866;2023-04-03T09:23:41;3.65;;;1.90;;
53925;SDS011;39836;52.754;6.866;2023-04-03T09:26:14;5.90;;;2.35;;
53925;SDS011;39836;52.754;6.866;2023-04-03T09:28:54;3.55;;;2.22;;
53925;SDS011;39836;52.754;6.866;2023-04-03T09:31:26;6.18;;;2.17;;
53925;SDS011;39836;52.754;6.866;2023-04-03T09:33:55;2.95;;;2.10;;
53925;SDS011;39836;52.754;6.866;2023-04-03T09:36:40;3.95;;;2.05;;
53925;SDS011;39836;52.754;6.866;2023-04-03T09:39:12;6.75;;;2.30;;
53925;SDS011;39836;52.754;6.866;2023-04-03T09:41:55;4.55;;;2.10;;
53925;SDS011;39836;52.754;6.866;2023-04-03T09:44:22;3.95;;;2.22;;
53925;SDS011;39836;52.754;6.866;2023-04-03T09:46:50;4.43;;;2.25;;
53925;SDS011;39836;52.754;6.866;2023-04-03T09:49:22;6.97;;;2.60;;
53925;SDS011;39836;52.754;6.866;2023-04-03T12:08:55;5.03;;;1.95;;
53925;SDS011;39836;52.754;6.866;2023-04-03T12:11:25;3.17;;;1.73;;
53925;SDS011;39836;52.754;6.866;2023-04-03T14:02:30;3.25;;;1.45;;
53925;SDS011;39836;52.754;6.866;2023-04-03T14:12:36;4.60;;;1.88;;
53925;SDS011;39836;52.754;6.866;2023-04-03T14:45:03;3.10;;;1.60;;
53925;SDS011;39836;52.754;6.866;2023-04-03T14:55:12;5.55;;;1.90;;
53925;SDS011;39836;52.754;6.866;2023-04-03T15:01:05;4.63;;;2.10;;
53925;SDS011;39836;52.754;6.866;2023-04-03T15:04:26;4.10;;;2.10;;
53925;SDS011;39836;52.754;6.866;2023-04-03T15:07:19;4.43;;;2.25;;
53925;SDS011;39836;52.754;6.866;2023-04-03T15:35:06;5.70;;;2.08;;
53925;SDS011;39836;52.754;6.866;2023-04-03T15:37:37;8.52;;;2.25;;
53925;SDS011;39836;52.754;6.866;2023-04-03T19:10:11;8.65;;;3.92;;
53925;SDS011;39836;52.754;6.866;2023-04-03T19:12:47;9.85;;;4.40;;
53925;SDS011;39836;52.754;6.866;2023-04-03T19:15:15;8.77;;;4.63;;
53925;SDS011;39836;52.754;6.866;2023-04-03T19:17:42;10.88;;;4.30;;
53925;SDS011;39836;52.754;6.866;2023-04-03T19:20:08;7.43;;;3.88;;
53925;SDS011;39836;52.754;6.866;2023-04-03T19:22:35;9.25;;;4.30;;
53925;SDS011;39836;52.754;6.866;2023-04-03T19:25:02;8.35;;;4.65;;
53925;SDS011;39836;52.754;6.866;2023-04-03T19:27:29;9.20;;;4.28;;
53925;SDS011;39836;52.754;6.866;2023-04-03T19:29:54;7.25;;;3.95;;
53925;SDS011;39836;52.754;6.866;2023-04-03T19:32:20;9.43;;;4.18;;
53925;SDS011;39836;52.754;6.866;2023-04-03T19:34:46;9.45;;;4.50;;
53925;SDS011;39836;52.754;6.866;2023-04-03T19:37:12;11.18;;;4.22;;
53925;SDS011;39836;52.754;6.866;2023-04-03T19:39:39;7.15;;;3.88;;
53925;SDS011;39836;52.754;6.866;2023-04-03T19:42:05;8.02;;;4.10;;
53925;SDS011;39836;52.754;6.866;2023-04-03T19:44:32;9.05;;;4.07;;
53925;SDS011;39836;52.754;6.866;2023-04-03T19:46:58;9.82;;;4.45;;
53925;SDS011;39836;52.754;6.866;2023-04-03T19:49:25;10.48;;;4.40;;
53925;SDS011;39836;52.754;6.866;2023-04-03T19:51:51;8.98;;;4.20;;
53925;SDS011;39836;52.754;6.866;2023-04-03T19:54:17;9.90;;;4.57;;
53925;SDS011;39836;52.754;6.866;2023-04-03T19:56:44;8.63;;;3.97;;
53925;SDS011;39836;52.754;6.866;2023-04-03T19:59:10;10.25;;;4.00;;
53925;SDS011;39836;52.754;6.866;2023-04-03T20:01:36;8.25;;;3.83;;
53925;SDS011;39836;52.754;6.866;2023-04-03T20:04:02;20.50;;;4.38;;
53925;SDS011;39836;52.754;6.866;2023-04-03T20:06:28;9.57;;;4.03;;
53925;SDS011;39836;52.754;6.866;2023-04-03T20:08:53;8.55;;;3.83;;
53925;SDS011;39836;52.754;6.866;2023-04-03T20:11:20;6.65;;;3.72;;
53925;SDS011;39836;52.754;6.866;2023-04-03T20:13:47;6.90;;;3.58;;
53925;SDS011;39836;52.754;6.866;2023-04-03T20:16:17;10.52;;;4.60;;
53925;SDS011;39836;52.754;6.866;2023-04-03T20:18:43;7.50;;;4.07;;
53925;SDS011;39836;52.754;6.866;2023-04-03T20:21:09;6.10;;;3.65;;
53925;SDS011;39836;52.754;6.866;2023-04-03T20:23:36;10.80;;;3.38;;
53925;SDS011;39836;52.754;6.866;2023-04-03T20:26:03;7.45;;;3.95;;
53925;SDS011;39836;52.754;6.866;2023-04-03T20:28:30;6.55;;;3.38;;
53925;SDS011;39836;52.754;6.866;2023-04-03T20:30:57;7.90;;;3.70;;
53925;SDS011;39836;52.754;6.866;2023-04-03T20:33:26;8.82;;;4.05;;
53925;SDS011;39836;52.754;6.866;2023-04-03T20:35:53;8.98;;;4.10;;
53925;SDS011;39836;52.754;6.866;2023-04-03T20:38:20;8.07;;;3.40;;
53925;SDS011;39836;52.754;6.866;2023-04-03T20:40:47;5.93;;;3.60;;
53925;SDS011;39836;52.754;6.866;2023-04-03T20:43:14;5.75;;;3.38;;
53925;SDS011;39836;52.754;6.866;2023-04-03T20:45:39;6.22;;;3.65;;
53925;SDS011;39836;52.754;6.866;2023-04-03T20:48:05;7.00;;;3.70;;
53925;SDS011;39836;52.754;6.866;2023-04-03T20:50:31;9.55;;;4.35;;
53925;SDS011;39836;52.754;6.866;2023-04-03T20:52:58;5.72;;;3.80;;
53925;SDS011;39836;52.754;6.866;2023-04-03T20:55:24;9.38;;;4.50;;
53925;SDS011;39836;52.754;6.866;2023-04-03T20:57:50;6.63;;;3.72;;
53925;SDS011;39836;52.754;6.866;2023-04-03T21:00:18;7.93;;;4.35;;
53925;SDS011;39836;52.754;6.866;2023-04-03T21:02:47;9.13;;;4.82;;
53925;SDS011;39836;52.754;6.866;2023-04-03T21:05:13;10.60;;;5.00;;
53925;SDS011;39836;52.754;6.866;2023-04-03T21:19:26;12.55;;;4.72;;
53925;SDS011;39836;52.754;6.866;2023-04-03T21:21:52;10.30;;;5.03;;
53925;SDS011;39836;52.754;6.866;2023-04-03T21:24:19;7.18;;;4.70;;
53925;SDS011;39836;52.754;6.866;2023-04-03T21:26:46;7.32;;;4.68;;
53925;SDS011;39836;52.754;6.866;2023-04-03T21:29:12;8.95;;;4.65;;
53925;SDS011;39836;52.754;6.866;2023-04-03T21:34:18;8.35;;;4.53;;
53925;SDS011;39836;52.754;6.866;2023-04-03T21:36:45;7.32;;;4.50;;
53925;SDS011;39836;52.754;6.866;2023-04-03T21:39:13;7.30;;;4.55;;
53925;SDS011;39836;52.754;6.866;2023-04-03T21:41:39;9.23;;;4.70;;
53925;SDS011;39836;52.754;6.866;2023-04-03T21:44:06;9.32;;;4.95;;
53925;SDS011;39836;52.754;6.866;2023-04-03T21:46:32;6.75;;;4.55;;
53925;SDS011;39836;52.754;6.866;2023-04-03T21:48:57;10.57;;;5.47;;
53925;SDS011;39836;52.754;6.866;2023-04-03T21:51:23;8.93;;;4.80;;
53925;SDS011;39836;52.754;6.866;2023-04-03T21:53:52;8.68;;;4.88;;
53925;SDS011;39836;52.754;6.866;2023-04-03T21:56:18;9.75;;;5.38;;
53925;SDS011;39836;52.754;6.866;2023-04-03T21:58:46;9.95;;;4.50;;
53925;SDS011;39836;52.754;6.866;2023-04-03T22:01:13;11.05;;;4.90;;
53925;SDS011;39836;52.754;6.866;2023-04-03T22:03:40;8.60;;;4.72;;
53925;SDS011;39836;52.754;6.866;2023-04-03T22:06:08;7.95;;;4.20;;
53925;SDS011;39836;52.754;6.866;2023-04-03T22:08:34;7.93;;;4.90;;
53925;SDS011;39836;52.754;6.866;2023-04-03T22:11:01;10.27;;;4.63;;
53925;SDS011;39836;52.754;6.866;2023-04-03T22:13:28;9.90;;;4.85;;
53925;SDS011;39836;52.754;6.866;2023-04-03T22:15:54;7.88;;;4.70;;
53925;SDS011;39836;52.754;6.866;2023-04-03T22:18:21;11.95;;;5.35;;
53925;SDS011;39836;52.754;6.866;2023-04-03T22:20:46;7.60;;;4.65;;
53925;SDS011;39836;52.754;6.866;2023-04-03T22:23:13;8.93;;;5.18;;
53925;SDS011;39836;52.754;6.866;2023-04-03T22:25:38;7.93;;;5.22;;
53925;SDS011;39836;52.754;6.866;2023-04-03T22:28:04;8.63;;;5.20;;
53925;SDS011;39836;52.754;6.866;2023-04-03T22:30:30;11.73;;;6.72;;
53925;SDS011;39836;52.754;6.866;2023-04-03T22:32:56;9.85;;;5.15;;
53925;SDS011;39836;52.754;6.866;2023-04-03T22:35:21;8.18;;;5.43;;
53925;SDS011;39836;52.754;6.866;2023-04-03T22:37:48;8.48;;;5.68;;
53925;SDS011;39836;52.754;6.866;2023-04-03T22:40:15;8.32;;;5.35;;
53925;SDS011;39836;52.754;6.866;2023-04-03T22:42:44;7.80;;;5.15;;
53925;SDS011;39836;52.754;6.866;2023-04-03T22:45:11;12.63;;;6.13;;
53925;SDS011;39836;52.754;6.866;2023-04-03T22:47:37;12.40;;;6.22;;
53925;SDS011;39836;52.754;6.866;2023-04-03T22:50:03;10.68;;;6.13;;
53925;SDS011;39836;52.754;6.866;2023-04-03T22:52:29;12.10;;;5.80;;
53925;SDS011;39836;52.754;6.866;2023-04-03T22:54:54;8.88;;;5.72;;
53925;SDS011;39836;52.754;6.866;2023-04-03T22:57:20;10.52;;;5.88;;
53925;SDS011;39836;52.754;6.866;2023-04-03T22:59:46;9.07;;;5.60;;
53925;SDS011;39836;52.754;6.866;2023-04-03T23:02:11;13.20;;;5.78;;
53925;SDS011;39836;52.754;6.866;2023-04-03T23:04:37;10.85;;;5.95;;
53925;SDS011;39836;52.754;6.866;2023-04-03T23:07:03;12.45;;;6.05;;
53925;SDS011;39836;52.754;6.866;2023-04-03T23:09:29;8.52;;;5.30;;
53925;SDS011;39836;52.754;6.866;2023-04-03T23:11:54;10.63;;;5.68;;
53925;SDS011;39836;52.754;6.866;2023-04-03T23:14:21;12.43;;;5.88;;
53925;SDS011;39836;52.754;6.866;2023-04-03T23:16:46;13.05;;;6.00;;
53925;SDS011;39836;52.754;6.866;2023-04-03T23:19:12;9.70;;;6.25;;
53925;SDS011;39836;52.754;6.866;2023-04-03T23:21:37;9.32;;;5.88;;
53925;SDS011;39836;52.754;6.866;2023-04-03T23:24:03;13.93;;;6.82;;
53925;SDS011;39836;52.754;6.866;2023-04-03T23:26:29;11.05;;;5.82;;
53925;SDS011;39836;52.754;6.866;2023-04-03T23:28:55;10.07;;;6.15;;
53925;SDS011;39836;52.754;6.866;2023-04-03T23:31:21;9.80;;;5.90;;
53925;SDS011;39836;52.754;6.866;2023-04-03T23:33:47;12.40;;;6.38;;
53925;SDS011;39836;52.754;6.866;2023-04-03T23:36:13;10.48;;;5.97;;
53925;SDS011;39836;52.754;6.866;2023-04-03T23:38:41;9.10;;;6.05;;
53925;SDS011;39836;52.754;6.866;2023-04-03T23:41:07;9.10;;;5.45;;
53925;SDS011;39836;52.754;6.866;2023-04-03T23:43:33;13.00;;;6.45;;
53925;SDS011;39836;52.754;6.866;2023-04-03T23:45:59;9.13;;;5.85;;
53925;SDS011;39836;52.754;6.866;2023-04-03T23:48:24;7.10;;;5.15;;
53925;SDS011;39836;52.754;6.866;2023-04-03T23:50:50;10.32;;;5.68;;
53925;SDS011;39836;52.754;6.866;2023-04-03T23:53:16;9.60;;;5.40;;
53925;SDS011;39836;52.754;6.866;2023-04-03T23:55:42;11.30;;;6.15;;
53925;SDS011;39836;52.754;6.866;2023-04-03T23:58:08;8.18;;;5.68;;
